Time;durP1;ratioP1;P1;durP2;ratioP2;P2;SDS_P1;SDS_P2;PMS_P1;PMS_P2;Temp;Humidity;BMP_temperature;BMP_pressure;BME280_temperature;BME280_humidity;BME280_pressure;Samples;Min_cycle;Max_cycle;Signal;HPM_P1;HPM_P2
2022/10/30 00:00:22;;;;;;;19.20;11.85;;;;;;;;;;6095443;23;20113;-76
2022/10/30 00:02:48;;;;;;;22.95;11.15;;;;;;;;;;6119593;23;20014;-76
2022/10/30 00:05:15;;;;;;;19.10;10.63;;;;;;;;;;6118854;23;20018;-76
2022/10/30 00:07:41;;;;;;;17.95;11.63;;;;;;;;;;6120336;23;20092;-76
2022/10/30 00:10:07;;;;;;;16.10;10.88;;;;;;;;;;6119587;23;20022;-76
2022/10/30 00:12:33;;;;;;;22.98;10.30;;;;;;;;;;6095535;23;20018;-76
2022/10/30 00:14:59;;;;;;;17.20;10.13;;;;;;;;;;6096362;23;20133;-76
2022/10/30 00:17:25;;;;;;;18.15;11.23;;;;;;;;;;6095650;23;20010;-76
2022/10/30 00:19:52;;;;;;;21.55;10.13;;;;;;;;;;6120328;23;20017;-76
2022/10/30 00:22:18;;;;;;;18.13;10.43;;;;;;;;;;6120215;23;20073;-77
2022/10/30 00:24:44;;;;;;;20.10;11.20;;;;;;;;;;6120060;23;20060;-76
2022/10/30 00:27:10;;;;;;;22.75;11.85;;;;;;;;;;6118769;23;20064;-76
2022/10/30 00:29:36;;;;;;;18.60;11.55;;;;;;;;;;6118484;23;20014;-76
2022/10/30 00:32:02;;;;;;;24.02;11.43;;;;;;;;;;6094643;23;20334;-76
2022/10/30 00:34:28;;;;;;;14.60;9.82;;;;;;;;;;6118423;23;20014;-76
2022/10/30 00:36:54;;;;;;;18.45;10.10;;;;;;;;;;6117889;23;20025;-76
2022/10/30 00:39:20;;;;;;;29.95;10.32;;;;;;;;;;6119653;23;20089;-75
2022/10/30 00:41:46;;;;;;;22.40;10.73;;;;;;;;;;6118809;23;20025;-75
2022/10/30 00:44:31;;;;;;;17.02;9.90;;;;;;;;;;6119443;23;20444;-75
2022/10/30 00:46:58;;;;;;;20.40;10.20;;;;;;;;;;6119644;23;20018;-75
2022/10/30 00:49:24;;;;;;;16.00;10.73;;;;;;;;;;6120113;23;20013;-75
2022/10/30 00:51:53;;;;;;;16.00;9.55;;;;;;;;;;6119660;23;20077;-75
2022/10/30 00:54:19;;;;;;;18.38;10.30;;;;;;;;;;6119639;23;20377;-75
2022/10/30 00:56:47;;;;;;;22.42;10.05;;;;;;;;;;6095373;23;20475;-75
2022/10/30 00:59:15;;;;;;;11.65;8.27;;;;;;;;;;6119251;23;20507;-75
2022/10/30 01:01:43;;;;;;;19.38;9.70;;;;;;;;;;6118859;23;20021;-75
2022/10/30 01:04:09;;;;;;;20.42;10.85;;;;;;;;;;6118716;23;20337;-76
2022/10/30 01:06:36;;;;;;;23.90;10.18;;;;;;;;;;6119078;23;20013;-75
2022/10/30 01:09:03;;;;;;;19.90;10.63;;;;;;;;;;6118445;23;20638;-75
2022/10/30 01:11:29;;;;;;;18.92;10.13;;;;;;;;;;6118453;23;20022;-76
2022/10/30 01:13:57;;;;;;;16.25;10.40;;;;;;;;;;6117837;23;20017;-75
2022/10/30 01:16:39;;;;;;;20.77;10.50;;;;;;;;;;6118032;23;20096;-75
2022/10/30 01:19:14;;;;;;;17.58;10.93;;;;;;;;;;6118387;23;20481;-75
2022/10/30 01:21:46;;;;;;;19.40;9.73;;;;;;;;;;6095206;23;20010;-75
2022/10/30 01:24:12;;;;;;;22.67;10.43;;;;;;;;;;6119492;23;20022;-75
2022/10/30 01:26:43;;;;;;;14.43;10.55;;;;;;;;;;6119106;23;20109;-75
2022/10/30 01:29:26;;;;;;;16.33;10.82;;;;;;;;;;6118114;23;20072;-76
2022/10/30 01:31:55;;;;;;;19.35;11.52;;;;;;;;;;6118833;23;20022;-75
2022/10/30 01:34:37;;;;;;;16.33;10.48;;;;;;;;;;6118112;23;20100;-75
2022/10/30 01:37:09;;;;;;;16.52;9.60;;;;;;;;;;6118231;23;20017;-75
2022/10/30 01:39:35;;;;;;;;;;;;;;;;;;6118688;23;20103;-75
2022/10/30 01:42:31;;;;;;;17.08;8.85;;;;;;;;;;6118166;23;19944;-75
2022/10/30 01:44:57;;;;;;;14.95;8.90;;;;;;;;;;6093902;23;20021;-75
2022/10/30 01:47:32;;;;;;;16.40;10.30;;;;;;;;;;6119809;23;20050;-75
2022/10/30 01:50:23;;;;;;;18.15;9.60;;;;;;;;;;6119182;23;20021;-75
2022/10/30 01:52:53;;;;;;;17.02;9.77;;;;;;;;;;6119031;23;20021;-75
2022/10/30 01:55:34;;;;;;;16.10;10.32;;;;;;;;;;6094646;23;20024;-75
2022/10/30 01:58:19;;;;;;;21.40;10.43;;;;;;;;;;6118873;23;20006;-75
2022/10/30 02:00:49;;;;;;;19.52;9.93;;;;;;;;;;6119006;23;20070;-75
2022/10/30 02:03:15;;;;;;;14.93;10.35;;;;;;;;;;6119776;23;20021;-75
2022/10/30 02:05:48;;;;;;;23.35;11.60;;;;;;;;;;6094494;23;20548;-75
2022/10/30 02:08:14;;;;;;;21.33;10.43;;;;;;;;;;6093711;23;20022;-75
2022/10/30 02:10:41;;;;;;;20.50;11.13;;;;;;;;;;6118061;23;20449;-75
2022/10/30 02:13:07;;;;;;;18.33;10.40;;;;;;;;;;6093955;23;20014;-75
2022/10/30 02:15:34;;;;;;;22.73;10.85;;;;;;;;;;6094205;23;20018;-75
2022/10/30 02:18:00;;;;;;;18.40;10.95;;;;;;;;;;6119200;23;20014;-76
2022/10/30 02:20:26;;;;;;;15.13;9.68;;;;;;;;;;6119606;23;20434;-75
2022/10/30 02:22:52;;;;;;;14.80;10.88;;;;;;;;;;6119903;23;20056;-75
2022/10/30 02:25:18;;;;;;;18.33;10.63;;;;;;;;;;6118940;23;20026;-76
2022/10/30 02:27:45;;;;;;;18.92;10.68;;;;;;;;;;6119336;23;20010;-76
2022/10/30 02:30:11;;;;;;;14.15;9.90;;;;;;;;;;6094747;23;20028;-76
2022/10/30 02:32:38;;;;;;;21.17;11.55;;;;;;;;;;6094498;23;20022;-76
2022/10/30 02:35:04;;;;;;;18.77;10.85;;;;;;;;;;6095373;23;20456;-75
2022/10/30 02:37:34;;;;;;;21.00;11.25;;;;;;;;;;6119042;23;20014;-75
2022/10/30 02:40:04;;;;;;;17.83;11.15;;;;;;;;;;6118793;23;20336;-75
2022/10/30 02:42:30;;;;;;;17.65;10.60;;;;;;;;;;6118980;23;20501;-76
2022/10/30 02:44:56;;;;;;;19.90;11.75;;;;;;;;;;6119585;23;20025;-75
2022/10/30 02:47:22;;;;;;;16.95;11.43;;;;;;;;;;6117721;23;20014;-76
2022/10/30 02:49:48;;;;;;;19.70;10.55;;;;;;;;;;6094995;23;20073;-75
2022/10/30 02:52:14;;;;;;;18.02;10.60;;;;;;;;;;6121157;23;20049;-76
2022/10/30 02:54:40;;;;;;;19.13;10.98;;;;;;;;;;6097090;23;20018;-76
2022/10/30 02:57:09;;;;;;;17.55;11.68;;;;;;;;;;6121188;23;20018;-76
2022/10/30 02:59:35;;;;;;;18.38;10.93;;;;;;;;;;6120583;23;20021;-76
2022/10/30 03:02:01;;;;;;;16.98;9.90;;;;;;;;;;6120986;23;20036;-76
2022/10/30 03:04:27;;;;;;;18.45;11.18;;;;;;;;;;6121618;23;20337;-75
2022/10/30 03:06:53;;;;;;;19.10;10.95;;;;;;;;;;6121085;23;20563;-75
2022/10/30 03:09:20;;;;;;;20.17;10.30;;;;;;;;;;6072348;23;20037;-75
2022/10/30 03:11:46;;;;;;;24.15;11.68;;;;;;;;;;6121336;23;20366;-75
2022/10/30 03:14:12;;;;;;;18.58;10.50;;;;;;;;;;6072147;23;20022;-75
2022/10/30 03:16:38;;;;;;;15.80;9.75;;;;;;;;;;6120735;23;20029;-75
2022/10/30 03:19:04;;;;;;;18.50;11.10;;;;;;;;;;6120725;23;20042;-75
2022/10/30 03:21:30;;;;;;;19.65;10.57;;;;;;;;;;6119963;23;20014;-75
2022/10/30 03:23:57;;;;;;;14.68;10.88;;;;;;;;;;6119667;23;20028;-75
2022/10/30 03:26:23;;;;;;;19.25;11.05;;;;;;;;;;6096412;23;20028;-75
2022/10/30 03:28:49;;;;;;;28.33;13.57;;;;;;;;;;6119557;23;20033;-75
2022/10/30 03:31:16;;;;;;;22.67;12.52;;;;;;;;;;6119439;23;20114;-75
2022/10/30 03:33:43;;;;;;;18.38;11.68;;;;;;;;;;6071035;23;20433;-75
2022/10/30 03:36:10;;;;;;;18.25;10.23;;;;;;;;;;6120555;23;20407;-75
2022/10/30 03:38:36;;;;;;;21.88;11.38;;;;;;;;;;6120765;23;20018;-75
2022/10/30 03:41:02;;;;;;;18.45;10.38;;;;;;;;;;6120487;23;20017;-75
2022/10/30 03:43:28;;;;;;;25.08;12.52;;;;;;;;;;6071857;23;20097;-75
2022/10/30 03:45:55;;;;;;;19.77;10.75;;;;;;;;;;6096484;23;20066;-75
2022/10/30 03:48:25;;;;;;;20.35;12.15;;;;;;;;;;6120440;23;20029;-75
2022/10/30 03:50:52;;;;;;;18.80;11.85;;;;;;;;;;6120404;23;20025;-75
2022/10/30 03:53:18;;;;;;;24.90;11.73;;;;;;;;;;6096519;23;20014;-76
2022/10/30 03:55:45;;;;;;;23.65;11.55;;;;;;;;;;6120438;23;20022;-76
2022/10/30 03:58:11;;;;;;;18.33;11.05;;;;;;;;;;6120160;23;20329;-76
2022/10/30 04:00:37;;;;;;;19.23;11.00;;;;;;;;;;6121001;23;20010;-76
2022/10/30 04:03:06;;;;;;;14.70;10.30;;;;;;;;;;6119888;23;20956;-76
2022/10/30 04:05:32;;;;;;;20.50;11.38;;;;;;;;;;6119903;23;20014;-76
2022/10/30 04:08:00;;;;;;;25.13;11.75;;;;;;;;;;6120587;23;20062;-76
2022/10/30 04:10:27;;;;;;;20.20;10.95;;;;;;;;;;6120466;23;20094;-76
2022/10/30 04:12:58;;;;;;;22.38;11.35;;;;;;;;;;6096065;23;20466;-76
2022/10/30 04:15:24;;;;;;;20.40;10.90;;;;;;;;;;6120230;23;20049;-76
2022/10/30 04:17:51;;;;;;;23.73;11.50;;;;;;;;;;6096401;23;20017;-76
2022/10/30 04:20:18;;;;;;;17.95;11.32;;;;;;;;;;6119536;23;20102;-76
2022/10/30 04:22:44;;;;;;;20.05;11.85;;;;;;;;;;6119591;23;20065;-76
2022/10/30 04:25:10;;;;;;;22.27;11.48;;;;;;;;;;6120189;23;20020;-76
2022/10/30 04:27:40;;;;;;;16.35;11.57;;;;;;;;;;6120506;23;20092;-76
2022/10/30 04:30:06;;;;;;;22.05;12.98;;;;;;;;;;6095601;23;20029;-76
2022/10/30 04:32:33;;;;;;;17.95;11.50;;;;;;;;;;6120146;23;20045;-76
2022/10/30 04:34:59;;;;;;;16.58;10.85;;;;;;;;;;6119657;23;20025;-76
2022/10/30 04:37:25;;;;;;;19.08;11.20;;;;;;;;;;6120414;23;20358;-76
2022/10/30 04:39:51;;;;;;;20.63;12.32;;;;;;;;;;6119854;23;20014;-76
2022/10/30 04:42:17;;;;;;;22.65;11.43;;;;;;;;;;6095450;23;20021;-76
2022/10/30 04:44:43;;;;;;;19.73;11.90;;;;;;;;;;6119682;23;20614;-76
2022/10/30 04:47:09;;;;;;;18.77;11.20;;;;;;;;;;6095589;23;20022;-76
2022/10/30 04:49:35;;;;;;;19.25;11.00;;;;;;;;;;6094633;23;20104;-76
2022/10/30 04:52:01;;;;;;;19.50;11.77;;;;;;;;;;6095506;23;20021;-76
2022/10/30 04:54:27;;;;;;;24.48;10.70;;;;;;;;;;6118836;23;20445;-76
2022/10/30 04:56:54;;;;;;;35.00;12.68;;;;;;;;;;6118906;23;20440;-76
2022/10/30 04:59:20;;;;;;;16.75;10.32;;;;;;;;;;6119468;23;20076;-76
2022/10/30 05:01:46;;;;;;;20.35;11.57;;;;;;;;;;6094826;23;20049;-76
2022/10/30 05:04:12;;;;;;;19.77;12.50;;;;;;;;;;6094522;23;20026;-76
2022/10/30 05:06:38;;;;;;;15.98;11.25;;;;;;;;;;6047939;23;20417;-76
2022/10/30 05:09:04;;;;;;;21.05;11.60;;;;;;;;;;6118762;23;20023;-76
2022/10/30 05:11:30;;;;;;;20.13;10.90;;;;;;;;;;6120233;23;20029;-75
2022/10/30 05:13:56;;;;;;;29.10;12.93;;;;;;;;;;6119966;23;20033;-76
2022/10/30 05:16:22;;;;;;;19.33;11.50;;;;;;;;;;6120044;23;20341;-76
2022/10/30 05:18:48;;;;;;;22.10;12.40;;;;;;;;;;6119663;23;20130;-76
2022/10/30 05:21:14;;;;;;;20.52;11.57;;;;;;;;;;6118964;23;20021;-76
2022/10/30 05:23:40;;;;;;;19.23;11.70;;;;;;;;;;6119459;23;20029;-76
2022/10/30 05:26:06;;;;;;;15.80;10.68;;;;;;;;;;6121634;23;20025;-75
2022/10/30 05:28:33;;;;;;;19.73;11.32;;;;;;;;;;6118826;23;20029;-76
2022/10/30 05:30:59;;;;;;;17.33;11.50;;;;;;;;;;6118495;23;20017;-75
2022/10/30 05:33:25;;;;;;;22.48;12.90;;;;;;;;;;6071524;23;20088;-75
2022/10/30 05:35:51;;;;;;;21.65;14.13;;;;;;;;;;6118766;23;20637;-75
2022/10/30 05:38:17;;;;;;;26.25;13.27;;;;;;;;;;6119940;23;20021;-76
2022/10/30 05:40:45;;;;;;;19.88;12.98;;;;;;;;;;6120429;23;20021;-76
2022/10/30 05:43:12;;;;;;;31.23;14.10;;;;;;;;;;6118780;23;20084;-75
2022/10/30 05:45:38;;;;;;;21.10;12.82;;;;;;;;;;6117153;23;20093;-75
2022/10/30 05:48:05;;;;;;;19.30;12.73;;;;;;;;;;6116290;23;20022;-76
2022/10/30 05:50:31;;;;;;;19.73;13.15;;;;;;;;;;6093128;23;20025;-75
2022/10/30 05:52:58;;;;;;;24.65;13.68;;;;;;;;;;6117948;23;20018;-76
2022/10/30 05:55:24;;;;;;;24.95;13.40;;;;;;;;;;6093281;23;20101;-75
2022/10/30 05:57:55;;;;;;;22.23;14.90;;;;;;;;;;6093255;23;20313;-76
2022/10/30 06:00:21;;;;;;;21.05;12.98;;;;;;;;;;6119411;23;20017;-75
2022/10/30 06:02:47;;;;;;;22.13;13.60;;;;;;;;;;6094329;23;20025;-76
2022/10/30 06:05:13;;;;;;;23.48;14.77;;;;;;;;;;6095130;23;20433;-76
2022/10/30 06:07:39;;;;;;;22.77;13.25;;;;;;;;;;6070641;23;20029;-76
2022/10/30 06:10:05;;;;;;;23.17;12.35;;;;;;;;;;6070560;23;20444;-75
2022/10/30 06:12:31;;;;;;;24.80;13.43;;;;;;;;;;6117899;23;20060;-76
2022/10/30 06:14:57;;;;;;;23.42;13.32;;;;;;;;;;6119007;23;20644;-76
2022/10/30 06:17:23;;;;;;;21.00;13.50;;;;;;;;;;6092975;23;20021;-75
2022/10/30 06:19:50;;;;;;;21.55;12.52;;;;;;;;;;6094787;23;20034;-76
2022/10/30 06:22:16;;;;;;;20.77;13.07;;;;;;;;;;6094624;23;20021;-76
2022/10/30 06:24:42;;;;;;;25.10;14.88;;;;;;;;;;6119950;23;20020;-76
2022/10/30 06:27:08;;;;;;;17.33;11.30;;;;;;;;;;6096616;23;20024;-76
2022/10/30 06:29:34;;;;;;;19.25;11.50;;;;;;;;;;6121047;23;20014;-75
2022/10/30 06:32:00;;;;;;;19.83;12.77;;;;;;;;;;6121945;23;20263;-75
2022/10/30 06:34:26;;;;;;;19.25;12.68;;;;;;;;;;6121009;23;20067;-76
2022/10/30 06:36:52;;;;;;;23.65;13.18;;;;;;;;;;6121197;23;20145;-76
2022/10/30 06:39:18;;;;;;;25.95;13.60;;;;;;;;;;6121414;23;20067;-75
2022/10/30 06:41:44;;;;;;;24.30;12.77;;;;;;;;;;6096810;23;20010;-75
2022/10/30 06:44:10;;;;;;;22.33;13.25;;;;;;;;;;6120577;23;20769;-76
2022/10/30 06:46:36;;;;;;;23.25;12.93;;;;;;;;;;6073403;23;20041;-75
2022/10/30 06:49:02;;;;;;;20.38;13.63;;;;;;;;;;6071470;23;20053;-75
2022/10/30 06:51:28;;;;;;;20.75;13.45;;;;;;;;;;6120403;23;20610;-75
2022/10/30 06:53:55;;;;;;;29.13;14.48;;;;;;;;;;6072123;23;20076;-75
2022/10/30 06:56:21;;;;;;;20.60;14.13;;;;;;;;;;6121264;23;20045;-75
2022/10/30 06:58:47;;;;;;;24.25;14.57;;;;;;;;;;6096555;23;20013;-74
2022/10/30 07:01:16;;;;;;;28.23;15.90;;;;;;;;;;6120477;23;20321;-75
2022/10/30 07:03:42;;;;;;;22.67;14.48;;;;;;;;;;6096588;23;20018;-75
2022/10/30 07:06:08;;;;;;;20.83;14.35;;;;;;;;;;6120528;23;20029;-75
2022/10/30 07:08:34;;;;;;;23.08;15.23;;;;;;;;;;6096203;23;20064;-75
2022/10/30 07:11:01;;;;;;;23.65;14.30;;;;;;;;;;6121130;23;20018;-75
2022/10/30 07:13:27;;;;;;;23.50;13.55;;;;;;;;;;6120520;23;20024;-75
2022/10/30 07:15:53;;;;;;;25.95;13.43;;;;;;;;;;6120476;23;20022;-75
2022/10/30 07:18:19;;;;;;;22.45;14.05;;;;;;;;;;6119677;23;20040;-75
2022/10/30 07:20:45;;;;;;;21.85;14.48;;;;;;;;;;6118805;23;20022;-75
2022/10/30 07:23:11;;;;;;;23.48;14.60;;;;;;;;;;6119516;23;20369;-75
2022/10/30 07:25:37;;;;;;;30.20;16.63;;;;;;;;;;6118819;23;20014;-75
2022/10/30 07:28:03;;;;;;;19.08;13.68;;;;;;;;;;6119639;23;20021;-75
2022/10/30 07:30:29;;;;;;;25.70;15.07;;;;;;;;;;6119998;23;20102;-75
2022/10/30 07:33:03;;;;;;;24.85;14.38;;;;;;;;;;6120450;23;20038;-76
2022/10/30 07:35:29;;;;;;;24.10;14.43;;;;;;;;;;6096642;23;20352;-75
2022/10/30 07:37:55;;;;;;;25.95;16.88;;;;;;;;;;6120795;23;20014;-76
2022/10/30 07:40:22;;;;;;;24.17;14.73;;;;;;;;;;6120786;23;20029;-78
2022/10/30 07:42:48;;;;;;;25.50;14.52;;;;;;;;;;6121634;23;20014;-78
2022/10/30 07:45:14;;;;;;;24.02;14.82;;;;;;;;;;6096143;23;20053;-76
2022/10/30 07:47:41;;;;;;;21.58;14.55;;;;;;;;;;6120702;23;20021;-75
2022/10/30 07:50:07;;;;;;;27.95;15.75;;;;;;;;;;6096071;23;20018;-76
2022/10/30 07:52:33;;;;;;;18.88;13.25;;;;;;;;;;6121269;23;20372;-76
2022/10/30 07:54:59;;;;;;;29.17;15.43;;;;;;;;;;6120261;23;20025;-76
2022/10/30 07:57:25;;;;;;;24.13;14.50;;;;;;;;;;6072526;23;20065;-76
2022/10/30 07:59:51;;;;;;;23.73;13.35;;;;;;;;;;6120698;23;20531;-75
2022/10/30 08:02:17;;;;;;;23.45;14.52;;;;;;;;;;6120220;23;20043;-75
2022/10/30 08:04:43;;;;;;;24.48;15.25;;;;;;;;;;6119898;23;20053;-76
2022/10/30 08:07:10;;;;;;;23.25;14.40;;;;;;;;;;6120380;23;20057;-76
2022/10/30 08:09:39;;;;;;;21.10;13.48;;;;;;;;;;6096231;23;20105;-76
2022/10/30 08:12:05;;;;;;;24.30;15.05;;;;;;;;;;6118843;23;20487;-76
2022/10/30 08:14:33;;;;;;;18.00;12.40;;;;;;;;;;6094871;23;20059;-76
2022/10/30 08:16:59;;;;;;;25.38;13.70;;;;;;;;;;6117912;23;20046;-76
2022/10/30 08:19:25;;;;;;;21.92;13.45;;;;;;;;;;6118719;23;20017;-76
2022/10/30 08:21:51;;;;;;;23.38;13.77;;;;;;;;;;6119450;23;20057;-76
2022/10/30 08:24:17;;;;;;;23.20;14.18;;;;;;;;;;6118633;23;20364;-76
2022/10/30 08:26:43;;;;;;;20.77;14.77;;;;;;;;;;6120069;23;20408;-76
2022/10/30 08:29:09;;;;;;;20.55;13.85;;;;;;;;;;6120208;23;20053;-76
2022/10/30 08:31:35;;;;;;;24.23;14.70;;;;;;;;;;6071550;23;20093;-76
2022/10/30 08:34:01;;;;;;;25.83;14.98;;;;;;;;;;6094995;23;20041;-76
2022/10/30 08:36:28;;;;;;;21.00;14.85;;;;;;;;;;6119649;23;20110;-76
2022/10/30 08:38:54;;;;;;;26.40;13.93;;;;;;;;;;6119723;23;20018;-75
2022/10/30 08:41:20;;;;;;;28.55;14.68;;;;;;;;;;6095521;23;20025;-76
2022/10/30 08:43:46;;;;;;;24.73;12.93;;;;;;;;;;6119332;23;20679;-75
2022/10/30 08:46:12;;;;;;;29.05;14.45;;;;;;;;;;6093055;23;20054;-75
2022/10/30 08:48:38;;;;;;;24.83;13.15;;;;;;;;;;6117380;23;20018;-76
2022/10/30 08:51:05;;;;;;;32.03;14.82;;;;;;;;;;6118864;23;20030;-76
2022/10/30 08:53:32;;;;;;;23.15;14.63;;;;;;;;;;6118426;23;20040;-75
2022/10/30 08:55:58;;;;;;;22.67;14.73;;;;;;;;;;6117948;23;20189;-75
2022/10/30 08:58:24;;;;;;;25.17;13.90;;;;;;;;;;6094112;23;20014;-76
2022/10/30 09:00:50;;;;;;;26.60;14.45;;;;;;;;;;6070383;23;20033;-75
2022/10/30 09:03:16;;;;;;;20.63;13.10;;;;;;;;;;6093218;23;20014;-75
2022/10/30 09:05:42;;;;;;;21.08;14.48;;;;;;;;;;6091993;23;20033;-75
2022/10/30 09:08:08;;;;;;;26.17;14.00;;;;;;;;;;6094384;23;20538;-75
2022/10/30 09:10:34;;;;;;;20.75;13.20;;;;;;;;;;6118149;23;20022;-75
2022/10/30 09:13:03;;;;;;;21.92;13.10;;;;;;;;;;6068923;23;20017;-75
2022/10/30 09:15:29;;;;;;;21.80;14.15;;;;;;;;;;6070958;23;20022;-75
2022/10/30 09:18:00;;;;;;;21.35;13.73;;;;;;;;;;6093934;23;20065;-75
2022/10/30 09:20:26;;;;;;;23.17;13.50;;;;;;;;;;6118235;23;20101;-75
2022/10/30 09:22:52;;;;;;;18.85;13.02;;;;;;;;;;6118695;23;20045;-76
2022/10/30 09:25:19;;;;;;;24.48;13.93;;;;;;;;;;6094565;23;20076;-75
2022/10/30 09:27:45;;;;;;;25.88;13.65;;;;;;;;;;6093891;23;20164;-75
2022/10/30 09:30:12;;;;;;;27.67;14.55;;;;;;;;;;6093787;23;20022;-76
2022/10/30 09:32:38;;;;;;;21.40;14.40;;;;;;;;;;6118702;23;20024;-76
2022/10/30 09:35:05;;;;;;;23.67;13.65;;;;;;;;;;6117884;23;20025;-75
2022/10/30 09:37:35;;;;;;;17.90;11.80;;;;;;;;;;6118302;23;20056;-76
2022/10/30 09:40:03;;;;;;;28.75;14.82;;;;;;;;;;6094439;23;20014;-75
2022/10/30 09:42:46;;;;;;;22.27;13.43;;;;;;;;;;6094786;23;20055;-75
2022/10/30 09:45:12;;;;;;;;;;;;;;;;;;6070273;23;20018;-75
2022/10/30 09:47:47;;;;;;;25.98;13.05;;;;;;;;;;6118296;23;20033;-75
2022/10/30 09:50:25;;;;;;;21.10;12.55;;;;;;;;;;6117867;23;20017;-75
2022/10/30 09:52:51;;;;;;;22.70;13.70;;;;;;;;;;6116890;23;20128;-75
2022/10/30 09:55:26;;;;;;;25.10;13.32;;;;;;;;;;6094140;23;20021;-75
2022/10/30 09:58:11;;;;;;;22.38;14.00;;;;;;;;;;6118674;23;20014;-75
2022/10/30 10:00:39;;;;;;;22.83;12.40;;;;;;;;;;6118066;23;20018;-75
2022/10/30 10:03:23;;;;;;;20.52;13.77;;;;;;;;;;6093824;23;20452;-75
2022/10/30 10:05:51;;;;;;;16.73;12.45;;;;;;;;;;6118205;23;20523;-76
2022/10/30 10:08:21;;;;;;;19.52;13.82;;;;;;;;;;6093445;23;20084;-75
2022/10/30 10:10:57;;;;;;;26.13;12.52;;;;;;;;;;6070132;23;20021;-76
2022/10/30 10:13:37;;;;;;;21.20;12.35;;;;;;;;;;6118004;23;20599;-75
2022/10/30 10:16:20;;;;;;;20.17;13.65;;;;;;;;;;6118023;23;20101;-76
2022/10/30 10:19:03;;;;;;;23.20;13.73;;;;;;;;;;6117787;23;20014;-76
2022/10/30 10:21:32;;;;;;;27.10;12.60;;;;;;;;;;6118096;23;20044;-75
2022/10/30 10:24:00;;;;;;;19.50;11.73;;;;;;;;;;6094143;23;20017;-75
2022/10/30 10:26:43;;;;;;;25.05;13.40;;;;;;;;;;6118119;23;20022;-75
2022/10/30 10:29:09;;;;;;;19.77;11.80;;;;;;;;;;6117668;23;20285;-76
2022/10/30 10:31:43;;;;;;;22.70;12.48;;;;;;;;;;6117937;23;20025;-75
2022/10/30 10:34:12;;;;;;;18.38;11.38;;;;;;;;;;6117917;23;20065;-75
2022/10/30 10:36:50;;;;;;;18.40;11.95;;;;;;;;;;6118954;23;20336;-75
2022/10/30 10:39:16;;;;;;;16.65;10.50;;;;;;;;;;6116938;23;20173;-76
2022/10/30 10:41:57;;;;;;;21.25;12.18;;;;;;;;;;6117963;23;20056;-76
2022/10/30 10:44:33;;;;;;;35.90;12.02;;;;;;;;;;6117683;23;20385;-75
2022/10/30 10:47:31;;;;;;;17.23;11.55;;;17.90;99.90;;;;;;6116455;23;20097;-76
2022/10/30 10:50:19;;;;;;;15.82;10.82;;;17.70;99.90;;;;;;6068902;23;20172;-76
2022/10/30 10:53:08;;;;;;;17.00;10.07;;;;;;;;;;6094135;23;20025;-76
2022/10/30 10:55:36;;;;;;;20.52;11.32;;;;;;;;;;6118709;23;20052;-76
2022/10/30 10:58:06;;;;;;;21.27;11.80;;;;;;;;;;6118543;23;20542;-76
2022/10/30 11:00:32;;;;;;;17.77;10.73;;;;;;;;;;6117411;23;20056;-76
2022/10/30 11:03:09;;;;;;;17.42;10.88;;;;;;;;;;6093377;23;20017;-76
2022/10/30 11:05:39;;;;;;;15.77;9.98;;;;;;;;;;6117533;23;20401;-76
2022/10/30 11:08:24;;;;;;;18.65;10.63;;;;;;;;;;6093962;23;20010;-76
2022/10/30 11:11:03;;;;;;;21.05;11.07;;;;;;;;;;6117623;23;20076;-75
2022/10/30 11:13:31;;;;;;;16.05;10.13;;;;;;;;;;6119247;23;20432;-75
2022/10/30 11:16:15;;;;;;;19.10;11.13;;;;;;;;;;6119234;23;20359;-75
2022/10/30 11:18:43;;;;;;;20.85;11.30;;;;;;;;;;6094879;23;20041;-75
2022/10/30 11:21:10;;;;;;;17.80;10.25;;;;;;;;;;6071337;23;20014;-75
2022/10/30 11:23:41;;;;;;;17.40;10.98;;;;;;;;;;6119516;23;20452;-75
2022/10/30 11:26:19;;;;;;;23.00;11.45;;;;;;;;;;6118020;23;20022;-76
2022/10/30 11:28:49;;;;;;;22.35;11.15;;;;;;;;;;6118717;23;20353;-75
2022/10/30 11:31:22;;;;;;;16.95;10.43;;;;;;;;;;6094289;23;20026;-76
2022/10/30 11:33:48;;;;;;;18.38;10.98;;;;;;;;;;6119486;23;20330;-75
2022/10/30 11:36:15;;;;;;;19.65;10.25;;;;;;;;;;6119037;23;20022;-76
2022/10/30 11:38:41;;;;;;;18.38;9.85;;;;;;;;;;6119222;23;20013;-76
2022/10/30 11:41:09;;;;;;;19.10;10.43;;;;;;;;;;6119421;23;20021;-76
2022/10/30 11:43:36;;;;;;;18.40;10.98;;;;;;;;;;6119379;23;20014;-76
2022/10/30 11:46:08;;;;;;;17.92;9.63;;;;;;;;;;6118672;23;20028;-76
2022/10/30 11:48:34;;;;;;;13.25;10.10;;;;;;;;;;6119113;23;20017;-76
2022/10/30 11:51:01;;;;;;;16.15;9.73;;;;;;;;;;6092557;23;20206;-76
2022/10/30 11:53:32;;;;;;;15.25;10.20;;;;;;;;;;6116132;23;20050;-78
2022/10/30 11:55:59;;;;;;;15.73;9.82;;;;;;;;;;6115873;23;20022;-76
2022/10/30 11:58:29;;;;;;;14.48;8.75;;;;;;;;;;6116393;23;20250;-78
2022/10/30 12:01:03;;;;;;;15.13;9.30;;;;;;;;;;6115317;23;20018;-76
2022/10/30 12:03:34;;;;;;;16.52;9.10;;;;;;;;;;6114877;23;20037;-76
2022/10/30 12:06:26;;;;;;;12.55;8.63;;;;;;;;;;6089991;23;20920;-76
2022/10/30 12:09:03;;;;;;;16.27;10.50;;;;;;;;;;6087404;23;20018;-76
2022/10/30 12:11:31;;;;;;;22.80;11.27;;;;;;;;;;6090803;23;20345;-76
2022/10/30 12:13:57;;;;;;;15.88;8.85;;;;;;;;;;6113598;23;20010;-76
2022/10/30 12:16:24;;;;;;;21.13;9.25;;;;;;;;;;6115881;23;20014;-76
2022/10/30 12:19:02;;;;;;;15.48;10.02;;;;;;;;;;6115366;23;20092;-76
2022/10/30 12:21:29;;;;;;;14.63;8.23;;;;;;;;;;6115044;23;20018;-76
2022/10/30 12:24:05;;;;;;;18.77;9.80;;;;;;;;;;6113854;23;20025;-75
2022/10/30 12:26:32;;;;;;;15.55;9.18;;;;;;;;;;6116083;23;20092;-78
2022/10/30 12:29:00;;;;;;;15.63;9.23;;;;;;;;;;6115592;23;20092;-80
2022/10/30 12:31:33;;;;;;;16.25;8.55;;;;;;;;;;6067826;23;20287;-80
2022/10/30 12:34:12;;;;;;;20.75;7.82;;;;;;;;;;6091275;23;20105;-80
2022/10/30 12:36:46;;;;;;;16.25;8.93;;;;;;;;;;6091911;23;20029;-76
2022/10/30 12:39:16;;;;;;;13.65;8.32;;;;;;;;;;6115847;23;20453;-76
2022/10/30 12:41:50;;;;;;;15.90;8.20;;;;;;;;;;6089968;23;20045;-76
2022/10/30 12:44:22;;;;;;;14.25;8.02;;;;;;;;;;6113946;23;20041;-76
2022/10/30 12:46:55;;;;;;;13.10;7.95;;;;;;;;;;6091463;23;20093;-75
2022/10/30 12:49:28;;;;;;;11.23;7.68;;;;;;;;;;6115146;23;20029;-76
2022/10/30 12:51:58;;;;;;;13.25;7.80;;;;;;;;;;6115674;23;20049;-76
2022/10/30 12:54:33;;;;;;;14.30;8.15;;;;;;;;;;6115210;23;20241;-76
2022/10/30 12:57:11;;;;;;;14.73;8.90;;;;;;;;;;6115705;23;20022;-77
2022/10/30 12:59:44;;;;;;;14.10;8.73;;;;;;;;;;6090316;23;20484;-77
2022/10/30 13:02:19;;;;;;;15.43;8.10;;;;;;;;;;6115940;23;20022;-76
2022/10/30 13:04:47;;;;;;;16.83;7.57;;;;;;;;;;6115129;23;20029;-76
2022/10/30 13:07:24;;;;;;;17.23;7.18;;;;;;;;;;6114875;23;20057;-76
2022/10/30 13:10:09;;;;;;;13.43;6.95;;;;;;;;;;6115358;23;20081;-76
2022/10/30 13:12:37;;;;;;;12.18;6.97;;;;;;;;;;6091032;23;20468;-76
2022/10/30 13:15:09;;;;;;;11.35;5.80;;;;;;;;;;6115337;23;20018;-76
2022/10/30 13:17:35;;;;;;;12.40;7.22;;;;;;;;;;6091939;23;20029;-76
2022/10/30 13:20:01;;;;;;;14.70;7.15;;;;;;;;;;6116094;23;20096;-76
2022/10/30 13:22:34;;;;;;;11.32;6.80;;;;;;;;;;6115872;23;20022;-76
2022/10/30 13:25:07;;;;;;;15.50;8.90;;;;;;;;;;6090576;23;20028;-76
2022/10/30 13:27:37;;;;;;;12.48;7.70;;;;;;;;;;6115514;23;20032;-76
2022/10/30 13:30:22;;;;;;;17.00;7.75;;;;;;;;;;6115042;23;20034;-77
2022/10/30 13:33:09;;;;;;;15.95;8.65;;;;;;;;;;6117538;23;20021;-76
2022/10/30 13:35:50;;;;;;;14.32;8.52;;;;;;;;;;6115252;23;20285;-76
2022/10/30 13:38:24;;;;;;;13.88;7.78;;;;;;;;;;6115427;23;20021;-76
2022/10/30 13:40:55;;;;;;;14.80;8.75;;;;;;;;;;6090655;23;20026;-76
2022/10/30 13:43:41;;;;;;;20.02;10.02;;;;;;;;;;6115126;23;20105;-76
2022/10/30 13:46:26;;;;;;;21.23;9.23;;;;;;;;;;6114664;23;20022;-77
2022/10/30 13:49:04;;;;;;;19.35;10.93;;;;;;;;;;6115443;23;20049;-77
2022/10/30 13:51:37;;;;;;;20.42;9.48;;;;;;;;;;6091379;23;20016;-76
2022/10/30 13:54:15;;;;;;;19.42;9.27;;;;;;;;;;6091234;23;20076;-78
2022/10/30 13:56:43;;;;;;;27.30;11.40;;;;;;;;;;6115559;23;20021;-78
2022/10/30 13:59:09;;;;;;;21.10;9.93;;;;;;;;;;6115947;23;20021;-78
2022/10/30 14:01:54;;;;;;;18.90;10.55;;;;;;;;;;6117092;23;20009;-78
2022/10/30 14:04:33;;;;;;;18.25;9.75;;;;;;;;;;6089842;23;20520;-78
2022/10/30 14:07:12;;;;;;;16.90;10.05;;;;;;;;;;6115158;23;20057;-78
2022/10/30 14:09:42;;;;;;;18.13;10.55;;;;;;;;;;6114854;23;20083;-78
2022/10/30 14:12:27;;;;;;;19.52;9.95;;;;;;;;;;6090627;23;20022;-78
2022/10/30 14:14:53;;;;;;;18.70;10.90;;;;;;;;;;6090502;23;20026;-78
2022/10/30 14:17:19;;;;;;;19.48;9.80;;;;;;;;;;6091379;23;20029;-77
2022/10/30 14:20:04;;;;;;;22.25;9.95;;;;;;;;;;6116854;23;20022;-76
2022/10/30 14:22:31;;;;;;;12.85;9.45;;;;;;;;;;6114876;23;20329;-77
2022/10/30 14:24:57;;;;;;;16.58;10.07;;;;;;;;;;6115167;23;20021;-77
2022/10/30 14:27:27;;;;;;;16.83;10.30;;;;;;;;;;6115697;23;20452;-76
2022/10/30 14:29:53;;;;;;;18.50;11.65;;;;;;;;;;6114828;23;20025;-74